METAR Data
IDs: Format: Raw Decoded Include TAF

Data at: 2003 UTC 17 Nov 2019

KFYG 171955Z AUTO 22005KT 10SM CLR 11/01 A2990 RMK AO2
KFYG 171935Z AUTO 24006KT 10SM CLR 11/00 A2991 RMK AO2
KFYG 171915Z AUTO 23005KT 10SM CLR 11/01 A2992 RMK AO2
KFYG 171855Z AUTO 22005KT 10SM CLR 11/02 A2993 RMK AO2
KFYG 171835Z AUTO 23005KT 10SM CLR 10/01 A2993 RMK AO2
KFYG 171815Z AUTO 17003KT 10SM CLR 10/02 A2995 RMK AO2
KFYG 171755Z AUTO 13003KT 9SM CLR 09/03 A2996 RMK AO2
KFYG 171735Z AUTO 13003KT 9SM CLR 09/03 A2997 RMK AO2
KFYG 171715Z AUTO 13006KT 8SM CLR 08/02 A2998 RMK AO2
KFYG 171655Z AUTO 15003KT 8SM CLR 07/03 A2999 RMK AO2
KFYG 171635Z AUTO 16005KT 7SM CLR 06/02 A3000 RMK AO2
KFYG 171615Z AUTO 14006KT 7SM CLR 05/02 A3001 RMK AO2
KFYG 171555Z AUTO 15005KT 7SM CLR 05/02 A3001 RMK AO2
KFYG 171535Z AUTO 14005KT 7SM CLR 04/02 A3001 RMK AO2
KFYG 171515Z AUTO 14006KT 5SM BR CLR 04/02 A3003 RMK AO2
KFYG 171455Z AUTO 14005KT 5SM HZ CLR 04/01 A3004 RMK AO2
KFYG 171435Z AUTO 14004KT 5SM BR CLR 03/01 A3005 RMK AO2
KFYG 171415Z AUTO 15005KT 5SM BR CLR 03/01 A3005 RMK AO2
KFYG 171355Z AUTO 13005KT 5SM BR CLR 03/01 A3005 RMK AO2
KFYG 171335Z AUTO 14006KT 5SM BR CLR 03/01 A3004 RMK AO2
KFYG 171315Z AUTO 14005KT 5SM BR CLR 03/01 A3004 RMK AO2
KFYG 171255Z AUTO 12005KT 5SM BR CLR 02/01 A3005 RMK AO2
KFYG 171235Z AUTO 14004KT 7SM CLR 03/01 A3006 RMK AO2
KFYG 171215Z AUTO 13005KT 5SM BR FEW075 02/01 A3005 RMK AO2
KFYG 171155Z AUTO 14004KT 5SM BR FEW060 02/01 A3006 RMK AO2
KFYG 171135Z AUTO 00000KT 4SM BR FEW013 02/01 A3007 RMK AO2
KFYG 171115Z AUTO 00000KT 3SM BR FEW060 02/01 A3008 RMK AO2
KFYG 171055Z AUTO 16003KT 5SM BR FEW060 02/01 A3009 RMK AO2
KFYG 171035Z AUTO 00000KT 5SM BR CLR 02/01 A3008 RMK AO2
KFYG 171015Z AUTO 15003KT 5SM BR CLR 02/01 A3009 RMK AO2
KFYG 170955Z AUTO 18004KT 6SM BR CLR 03/00 A3009 RMK AO2
KFYG 170935Z AUTO 13004KT 5SM BR CLR 02/00 A3009 RMK AO2
KFYG 170915Z AUTO 14004KT 6SM BR CLR 03/00 A3010 RMK AO2
KFYG 170855Z AUTO 13006KT 6SM BR CLR 03/01 A3010 RMK AO2
KFYG 170835Z AUTO 14004KT 5SM BR CLR 02/01 A3011 RMK AO2
KFYG 170815Z AUTO 14004KT 4SM BR CLR 02/01 A3012 RMK AO2
KFYG 170755Z AUTO 19003KT 5SM BR FEW060 02/00 A3013 RMK AO2
KFYG 170735Z AUTO 12007KT 5SM BR CLR 01/00 A3011 RMK AO2
KFYG 170715Z AUTO 00000KT 4SM BR FEW013 00/00 A3013 RMK AO2
KFYG 170655Z AUTO 00000KT 4SM BR FEW013 SCT060 01/00 A3014 RMK AO2
KFYG 170635Z AUTO 15004KT 6SM BR FEW013 03/00 A3014 RMK AO2
KFYG 170615Z AUTO 14006KT 6SM BR FEW013 03/00 A3014 RMK AO2
KFYG 170555Z AUTO 14005KT 5SM BR FEW013 00/00 A3015 RMK AO2
KFYG 170535Z AUTO 14004KT 5SM BR FEW013 FEW023 01/00 A3015 RMK AO2
KFYG 170515Z AUTO 00000KT 5SM BR FEW013 01/00 A3015 RMK AO2
KFYG 170455Z AUTO 00000KT 5SM BR FEW013 01/00 A3015 RMK AO2
KFYG 170435Z AUTO 00000KT 5SM BR FEW015 01/00 A3016 RMK AO2
KFYG 170415Z AUTO 14004KT 5SM BR FEW019 02/00 A3015 RMK AO2
KFYG 170355Z AUTO 13005KT 5SM BR FEW017 01/00 A3014 RMK AO2
KFYG 170335Z AUTO 13003KT 6SM BR FEW015 FEW060 02/00 A3016 RMK AO2
KFYG 170315Z AUTO 15003KT 7SM FEW015 03/00 A3016 RMK AO2
KFYG 170255Z AUTO 12004KT 8SM FEW015 SCT060 04/00 A3016 RMK AO2
KFYG 170235Z AUTO 12006KT 8SM SCT013 05/00 A3016 RMK AO2
KFYG 170215Z AUTO 12005KT 10SM SCT015 05/00 A3016 RMK AO2
KFYG 170155Z AUTO 12008KT 9SM FEW015 05/00 A3015 RMK AO2
KFYG 170135Z AUTO 12008KT 10SM FEW015 06/00 A3016 RMK AO2
KFYG 170115Z AUTO 11005KT 10SM FEW017 SCT060 06/00 A3016 RMK AO2
KFYG 170055Z AUTO 10005KT 10SM FEW017 FEW060 06/00 A3016 RMK AO2
KFYG 170035Z AUTO 11006KT 10SM FEW017 07/01 A3016 RMK AO2
KFYG 170015Z AUTO 11005KT 10SM FEW017 FEW060 07/00 A3016 RMK AO2
KFYG 162355Z AUTO 09003KT 10SM FEW017 07/01 A3017 RMK AO2
KFYG 162335Z AUTO 09003KT 10SM FEW017 07/01 A3016 RMK AO2
KFYG 162315Z AUTO 07003KT 10SM CLR 07/01 A3016 RMK AO2
KFYG 162255Z AUTO 07004KT 9SM CLR 08/01 A3016 RMK AO2
KFYG 162235Z AUTO 07005KT 10SM CLR 09/01 A3017 RMK AO2
KFYG 162215Z AUTO 10003KT 10SM CLR 10/01 A3018 RMK AO2
KFYG 162155Z AUTO 10005KT 10SM CLR 10/00 A3018 RMK AO2
KFYG 162135Z AUTO 12003KT 10SM CLR 10/01 A3018 RMK AO2
KFYG 162115Z AUTO 11003KT 10SM CLR 11/01 A3019 RMK AO2
KFYG 162055Z AUTO 11003KT 10SM CLR 10/00 A3020 RMK AO2
KFYG 162035Z AUTO 15005KT 10SM CLR 10/00 A3020 RMK AO2
KFYG 162015Z AUTO 14005KT 9SM CLR 10/00 A3021 RMK AO2
KFYG 161955Z AUTO 15005KT 10SM CLR 10/01 A3022 RMK AO2
KFYG 161935Z AUTO 16004KT 10SM CLR 10/01 A3023 RMK AO2
KFYG 161915Z AUTO 09004KT 9SM CLR 09/00 A3024 RMK AO2
KFYG 161855Z AUTO 00000KT 9SM CLR 09/01 A3025 RMK AO2
KFYG 161835Z AUTO 16005KT 9SM CLR 08/01 A3026 RMK AO2
KFYG 161815Z AUTO 14004KT 9SM CLR 08/01 A3027 RMK AO2
KFYG 161755Z AUTO 17005KT 9SM CLR 07/01 A3028 RMK AO2
KFYG 161735Z AUTO 17005KT 9SM CLR 07/01 A3029 RMK AO2
KFYG 161715Z AUTO 17005KT 8SM CLR 07/00 A3031 RMK AO2
KFYG 161655Z AUTO 10005KT 8SM CLR 05/00 A3032 RMK AO2
KFYG 161635Z AUTO 13005KT 8SM CLR 05/00 A3033 RMK AO2
KFYG 161615Z AUTO 16005KT 8SM CLR 04/00 A3034 RMK AO2
KFYG 161555Z AUTO 13005KT 8SM CLR 04/00 A3034 RMK AO2
KFYG 161535Z AUTO 16005KT 8SM CLR 03/00 A3035 RMK AO2
KFYG 161515Z AUTO 14007KT 5SM BR CLR 02/00 A3035 RMK AO2
KFYG 161455Z AUTO 18004KT 5SM BR CLR 02/00 A3035 RMK AO2
KFYG 161435Z AUTO 18003KT 5SM BR CLR 00/00 A3035 RMK AO2
KFYG 161415Z AUTO 00000KT 4SM BR CLR M01/M02 A3035 RMK AO2
KFYG 161355Z AUTO 00000KT 3SM BR CLR M02/M02 A3036 RMK AO2
KFYG 161335Z AUTO 00000KT 4SM BR CLR M03/M03 A3037 RMK AO2
KFYG 161315Z AUTO 00000KT 3SM BR CLR M03/M03 A3036 RMK AO2
KFYG 161255Z AUTO 00000KT 2SM BR CLR M04/M04 A3036 RMK AO2
KFYG 161235Z AUTO 00000KT 2 1/2SM BR CLR M04/M04 A3036 RMK AO2
KFYG 161215Z AUTO 00000KT 3SM BR FEW017 M03/M03 A3035 RMK AO2
KFYG 161155Z AUTO 00000KT 3SM BR SCT017 M03/M03 A3035 RMK AO2
KFYG 161135Z AUTO 00000KT 5SM BR SCT019 M03/M03 A3036 RMK AO2
KFYG 161115Z AUTO 00000KT 7SM SCT019 M03/M03 A3036 RMK AO2
KFYG 161055Z AUTO 00000KT 8SM FEW019 M04/M04 A3036 RMK AO2
KFYG 161035Z AUTO 00000KT 8SM FEW018 FEW060 M04/M04 A3035 RMK AO2
KFYG 161015Z AUTO 00000KT 6SM BR FEW060 M03/M03 A3035 RMK AO2
KFYG 160955Z AUTO 00000KT 5SM BR FEW018 M03/M03 A3035 RMK AO2
KFYG 160935Z AUTO 00000KT 7SM FEW018 M03/M03 A3035 RMK AO2
KFYG 160915Z AUTO 00000KT 6SM BR CLR M03/M03 A3035 RMK AO2
KFYG 160855Z AUTO 00000KT 5SM BR FEW018 FEW060 M03/M03 A3034 RMK AO2
KFYG 160815Z AUTO 6SM BR FEW060 M03/M03 A3035 RMK AO2